West Branch, Michigan
Current Conditions -  °F | °C
As of 9:19 AM on Thursday 29 Jan 2015 (Local Time) from KHTL Reporting Station
Light Snow Light Snow  
Wind Chill: 23°   Ceiling: 2400
Heat Index: 23°   Visibility: 1mi
Dew Point: 20°   Wind: 0mph
Humidity: 88%   Direction: NA
Pressure: 29.75"   Gusts: NA
Location:  44.28°N, 84.24°W
Report Text: KHTL 291419Z AUTO 00000KT 1SM -SN BR BKN024 OVC050 M05/M07 A2975 RMK AO2 P0002 T10501067
Loading
Personal Weather Stations






























Interactive Weather Map New forecast layout! Learn more

10-Day Weather Forecast

Advertisements
Track Severe Weather on mobile